Time;durP1;ratioP1;P1;durP2;ratioP2;P2;SDS_P1;SDS_P2;PMS_P1;PMS_P2;Temp;Humidity;BMP_temperature;BMP_pressure;BME280_temperature;BME280_humidity;BME280_pressure;Samples;Min_cycle;Max_cycle;Signal;HPM_P1;HPM_P2
2021/04/07 00:02:41;;;;;;;9.05;8.15;;;;;;;2.63;81.92;100060.34;4742419;30;20055;-75
2021/04/07 00:05:46;;;;;;;10.70;8.50;;;;;;;2.53;82.54;100059.19;4740391;30;20401;-77
2021/04/07 00:08:51;;;;;;;10.18;8.98;;;;;;;2.50;82.58;100051.44;4742126;30;20056;-77
2021/04/07 00:11:55;;;;;;;10.60;9.05;;;;;;;2.43;82.44;100042.16;4743419;30;20048;-77
2021/04/07 00:14:59;;;;;;;12.25;9.77;;;;;;;2.34;83.02;100048.88;4743863;30;20064;-78
2021/04/07 00:18:05;;;;;;;11.73;10.02;;;;;;;2.24;82.54;100042.41;4740301;30;20061;-78
2021/04/07 00:21:09;;;;;;;11.00;9.90;;;;;;;2.30;82.32;100035.88;4740779;30;20120;-78
2021/04/07 00:24:14;;;;;;;9.98;8.98;;;;;;;2.32;82.08;100036.66;4739525;30;20052;-77
2021/04/07 00:27:25;;;;;;;9.68;8.77;;;;;;;2.26;81.88;100039.66;4743680;30;20125;-78
2021/04/07 00:30:33;;;;;;;9.85;8.85;;;;;;;2.32;81.30;100039.31;4741537;30;20053;-78
2021/04/07 00:33:37;;;;;;;11.25;9.13;;;;;;;2.40;81.10;100050.28;4743329;30;20524;-77
2021/04/07 00:36:42;;;;;;;9.23;7.95;;;;;;;2.37;80.52;100040.72;4744336;30;20056;-78
2021/04/07 00:39:46;;;;;;;10.93;8.43;;;;;;;2.37;79.93;100043.34;4738554;30;20060;-79
2021/04/07 00:42:53;;;;;;;8.57;7.53;;;;;;;2.35;80.10;100042.59;4741119;30;20519;-78
2021/04/07 00:45:57;;;;;;;10.05;7.95;;;;;;;2.39;79.10;100040.63;4744237;30;20075;-77
2021/04/07 00:49:02;;;;;;;9.50;8.50;;;;;;;2.27;79.25;100046.66;4744172;30;20071;-77
2021/04/07 00:52:06;;;;;;;9.73;8.73;;;;;;;2.11;79.38;100051.13;4742028;30;20055;-78
2021/04/07 00:55:12;;;;;;;9.55;8.63;;;;;;;2.01;80.03;100055.25;4740899;30;20059;-78
2021/04/07 00:58:17;;;;;;;12.00;9.90;;;;;;;1.98;80.85;100050.97;4743336;30;20059;-77
2021/04/07 01:01:22;;;;;;;14.95;9.75;;;;;;;2.01;80.87;100056.09;4743694;30;20409;-78
2021/04/07 01:04:26;;;;;;;10.43;9.43;;;;;;;1.99;81.00;100068.59;4741846;30;20059;-78
2021/04/07 01:07:30;;;;;;;11.77;10.35;;;;;;;1.92;81.09;100061.94;4740970;30;20063;-78
2021/04/07 01:10:37;;;;;;;11.52;10.32;;;;;;;1.80;81.56;100060.00;4743601;30;20056;-78
2021/04/07 01:13:54;;;;;;;13.57;9.85;;;;;;;1.84;81.75;100062.38;4742181;30;20052;-77
2021/04/07 01:16:59;;;;;;;11.80;10.15;;;;;;;1.80;81.77;100058.19;4743203;30;20060;-77
2021/04/07 01:20:06;;;;;;;10.63;9.52;;;;;;;1.85;82.08;100065.88;4747289;30;20044;-78
2021/04/07 01:23:11;;;;;;;10.35;9.35;;;;;;;1.85;82.29;100065.88;4744557;30;20056;-77
2021/04/07 01:26:17;;;;;;;10.23;9.23;;;;;;;1.87;82.03;100080.72;4745639;30;20555;-79
2021/04/07 01:29:21;;;;;;;10.48;8.88;;;;;;;1.88;81.71;100077.13;4744395;30;20059;-77
2021/04/07 01:32:25;;;;;;;8.35;7.55;;;;;;;1.98;81.51;100070.38;4747383;30;20047;-77
2021/04/07 01:35:29;;;;;;;9.07;8.18;;;;;;;1.99;80.97;100081.81;4744026;30;20055;-77
2021/04/07 01:38:34;;;;;;;8.55;7.68;;;;;;;2.01;80.84;100093.16;4745008;30;20071;-78
2021/04/07 01:41:40;;;;;;;9.48;8.57;;;;;;;1.97;80.79;100092.47;4745821;30;20063;-77
2021/04/07 01:44:45;;;;;;;11.75;9.88;;;;;;;1.85;81.12;100095.00;4746956;30;20059;-78
2021/04/07 01:48:10;;;;;;;10.75;9.65;;;;;;;1.91;80.91;100097.28;4747546;30;20146;-77
2021/04/07 01:51:05;;;;;;;13.98;10.95;;;;;;;1.91;81.03;100098.13;4750599;30;20149;-77
2021/04/07 01:54:13;;;;;;;12.13;10.45;;;;;;;1.95;81.13;100096.19;4741911;30;20052;-77
2021/04/07 01:57:17;;;;;;;13.90;11.38;;;;;;;1.97;80.97;100100.41;4739753;30;20064;-77
2021/04/07 02:00:22;;;;;;;16.92;12.57;;;;;;;2.00;80.80;100101.19;4742012;30;20572;-78
2021/04/07 02:03:27;;;;;;;20.23;14.93;;;;;;;2.00;80.56;100117.09;4740905;30;20072;-79
2021/04/07 02:06:32;;;;;;;19.15;15.68;;;;;;;1.94;80.24;100116.50;4741412;30;20071;-75
2021/04/07 02:09:36;;;;;;;17.05;13.95;;;;;;;1.84;80.43;100115.28;4742462;30;20142;-76
2021/04/07 02:12:40;;;;;;;14.30;11.55;;;;;;;1.70;80.17;100120.50;4733986;30;20209;-77
2021/04/07 02:15:45;;;;;;;15.05;11.13;;;;;;;1.59;80.60;100128.16;4744284;30;20056;-78
2021/04/07 02:18:49;;;;;;;10.65;9.55;;;;;;;1.63;80.46;100123.56;4741926;30;20048;-77
2021/04/07 02:22:15;;;;;;;9.38;8.35;;;;;;;1.51;80.10;100125.06;4744174;30;20048;-78
2021/04/07 02:25:20;;;;;;;8.98;7.45;;;;;;;1.29;80.11;100129.81;4745489;30;20142;-77
2021/04/07 02:28:24;;;;;;;8.85;7.63;;;;;;;1.15;80.49;100132.34;4743965;30;20055;-78
2021/04/07 02:31:28;;;;;;;9.77;8.57;;;;;;;1.12;80.77;100143.06;4739874;30;20405;-76
2021/04/07 02:34:34;;;;;;;8.68;7.85;;;;;;;1.22;81.12;100137.22;4742846;30;20059;-78
2021/04/07 02:37:38;;;;;;;8.80;7.20;;;;;;;1.37;80.54;100146.13;4745144;30;20075;-77
2021/04/07 02:40:43;;;;;;;9.18;7.22;;;;;;;1.44;80.70;100151.94;4740604;30;20064;-78
2021/04/07 02:43:47;;;;;;;8.60;7.78;;;;;;;1.45;80.39;100153.66;4741424;30;20063;-78
2021/04/07 02:46:51;;;;;;;11.48;7.82;;;;;;;1.46;80.23;100150.09;4744580;30;20056;-78
2021/04/07 02:49:55;;;;;;;8.68;7.68;;;;;;;1.49;79.93;100148.13;4744035;30;20500;-78
2021/04/07 02:53:00;;;;;;;8.93;7.95;;;;;;;1.43;80.27;100150.25;4739398;30;20060;-79
2021/04/07 02:56:05;;;;;;;8.98;8.07;;;;;;;1.47;80.44;100157.94;4745381;30;20063;-78
2021/04/07 02:59:09;;;;;;;8.88;7.97;;;;;;;1.41;80.20;100149.47;4742294;30;20512;-78
2021/04/07 03:02:13;;;;;;;8.18;7.38;;;;;;;1.44;80.24;100147.50;4743153;30;20052;-78
2021/04/07 03:05:18;;;;;;;8.23;7.40;;;;;;;1.57;79.91;100164.44;4743801;30;20066;-77
2021/04/07 03:08:22;;;;;;;9.10;7.28;;;;;;;1.58;79.78;100163.47;4744917;30;20075;-76
2021/04/07 03:11:27;;;;;;;9.32;7.68;;;;;;;1.56;79.96;100159.19;4745160;30;20524;-76
2021/04/07 03:14:32;;;;;;;7.72;6.95;;;;;;;1.64;79.63;100160.50;4741700;30;20060;-77
2021/04/07 03:17:38;;;;;;;8.05;6.80;;;;;;;1.64;79.58;100157.88;4742476;30;20055;-76
2021/04/07 03:20:42;;;;;;;7.40;6.40;;;;;;;1.58;79.36;100163.47;4744866;30;20067;-77
2021/04/07 03:23:46;;;;;;;7.10;6.25;;;;;;;1.52;79.54;100171.75;4740772;30;20067;-77
2021/04/07 03:26:51;;;;;;;7.35;6.40;;;;;;;1.41;79.82;100170.63;4741902;30;20051;-77
2021/04/07 03:29:58;;;;;;;7.88;7.15;;;;;;;1.26;80.03;100174.91;4742749;30;20051;-76
2021/04/07 03:33:02;;;;;;;8.57;6.82;;;;;;;1.09;80.83;100175.81;4744568;30;20503;-75
2021/04/07 03:36:07;;;;;;;8.75;7.85;;;;;;;1.02;81.44;100174.41;4742681;30;20047;-77
2021/04/07 03:39:12;;;;;;;8.98;8.07;;;;;;;1.07;81.90;100177.69;4740417;30;20052;-76
2021/04/07 03:42:16;;;;;;;8.85;7.95;;;;;;;1.09;82.08;100181.09;4742885;30;20052;-77
2021/04/07 03:45:20;;;;;;;9.70;8.00;;;;;;;1.07;81.76;100188.25;4743952;30;20056;-77
2021/04/07 03:48:27;;;;;;;9.98;7.60;;;;;;;1.21;82.15;100184.91;4744794;30;20401;-77
2021/04/07 03:51:32;;;;;;;10.75;8.30;;;;;;;1.38;81.98;100190.16;4741880;30;20047;-77
2021/04/07 03:54:36;;;;;;;9.13;7.47;;;;;;;1.45;81.25;100193.31;4741060;30;20075;-76
2021/04/07 03:57:40;;;;;;;10.23;7.40;;;;;;;1.52;81.12;100190.28;4743240;30;20068;-77
2021/04/07 04:00:45;;;;;;;8.43;7.35;;;;;;;1.49;80.79;100193.06;4744480;30;20051;-77
2021/04/07 04:03:49;;;;;;;9.30;8.15;;;;;;;1.56;81.15;100194.44;4739941;30;20047;-77
2021/04/07 04:06:54;;;;;;;7.95;7.20;;;;;;;1.48;80.21;100194.00;4743035;30;20060;-77
2021/04/07 04:09:58;;;;;;;9.77;7.82;;;;;;;1.31;80.87;100197.53;4743482;30;20052;-77
2021/04/07 04:13:04;;;;;;;9.77;7.78;;;;;;;1.33;81.20;100210.69;4744174;30;20067;-77
2021/04/07 04:16:08;;;;;;;8.73;7.82;;;;;;;1.31;81.24;100212.53;4740731;30;20059;-77
2021/04/07 04:19:13;;;;;;;9.05;7.65;;;;;;;1.38;81.56;100216.59;4741179;30;20071;-77
2021/04/07 04:22:17;;;;;;;8.85;7.80;;;;;;;1.37;81.36;100206.09;4740951;30;20548;-79
2021/04/07 04:25:23;;;;;;;11.05;8.00;;;;;;;1.35;81.57;100214.09;4743869;30;20064;-78
2021/04/07 04:28:27;;;;;;;9.80;8.35;;;;;;;1.30;82.20;100217.00;4735196;30;20060;-76
2021/04/07 04:31:31;;;;;;;9.10;8.13;;;;;;;1.31;81.70;100216.03;4740856;30;20047;-76
2021/04/07 04:34:36;;;;;;;9.93;8.85;;;;;;;1.33;81.95;100222.09;4741968;30;20065;-77
2021/04/07 04:37:42;;;;;;;9.23;8.30;;;;;;;1.43;81.69;100216.34;4742315;30;20504;-77
2021/04/07 04:40:47;;;;;;;10.93;8.35;;;;;;;1.53;81.60;100212.28;4739637;30;20409;-78
2021/04/07 04:43:51;;;;;;;8.75;7.85;;;;;;;1.48;81.04;100211.69;4741067;30;20056;-77
2021/04/07 04:46:55;;;;;;;9.43;8.43;;;;;;;1.52;81.00;100213.22;4742006;30;20071;-77
2021/04/07 04:50:00;;;;;;;10.50;8.05;;;;;;;1.46;81.41;100210.91;4743184;30;20052;-77
2021/04/07 04:53:04;;;;;;;10.57;8.40;;;;;;;1.51;80.71;100214.13;4745463;30;20059;-78
2021/04/07 04:56:09;;;;;;;9.05;8.10;;;;;;;1.51;80.88;100207.06;4743893;30;20064;-77
2021/04/07 04:59:13;;;;;;;9.05;7.45;;;;;;;1.59;80.57;100212.81;4742498;30;20516;-77
2021/04/07 05:02:17;;;;;;;10.23;8.32;;;;;;;1.71;80.21;100225.38;4744330;30;20512;-78
2021/04/07 05:05:22;;;;;;;8.73;6.97;;;;;;;1.73;79.47;100222.63;4747425;30;20060;-75
2021/04/07 05:08:26;;;;;;;11.55;7.80;;;;;;;1.84;79.09;100236.16;4747268;30;20071;-78
2021/04/07 05:11:33;;;;;;;9.15;7.07;;;;;;;2.06;78.30;100234.03;4745165;30;20043;-77
2021/04/07 05:14:38;;;;;;;9.50;6.50;;;;;;;2.37;76.75;100233.22;4745565;30;20048;-75
2021/04/07 05:17:42;;;;;;;9.00;6.60;;;;;;;2.51;75.79;100227.97;4746610;30;20056;-75
2021/04/07 05:20:46;;;;;;;10.30;6.13;;;;;;;2.96;73.75;100217.34;4746366;30;20523;-75
2021/04/07 05:23:51;;;;;;;9.82;6.20;;;;;;;3.35;72.22;100223.88;4744161;30;20512;-78
2021/04/07 05:26:55;;;;;;;7.05;5.65;;;;;;;3.69;70.06;100211.13;4742882;30;20059;-77
2021/04/07 05:30:00;;;;;;;7.28;5.45;;;;;;;3.59;69.74;100209.13;4743595;30;20051;-78
2021/04/07 05:33:07;;;;;;;7.20;5.15;;;;;;;4.58;68.25;100215.13;4746785;30;20055;-77
2021/04/07 05:36:14;;;;;;;8.50;5.40;;;;;;;4.69;65.18;100201.97;4742659;30;20069;-77
2021/04/07 05:39:18;;;;;;;8.38;5.25;;;;;;;4.31;66.46;100201.00;4744662;30;20067;-77
2021/04/07 05:42:23;;;;;;;9.02;5.05;;;;;;;4.80;65.04;100198.63;4746203;30;20059;-77
2021/04/07 05:45:30;;;;;;;7.15;4.30;;;;;;;4.77;64.77;100193.50;4746961;30;20443;-76
2021/04/07 05:48:39;;;;;;;8.27;4.03;;;;;;;4.69;65.02;100195.84;4737364;30;20064;-77
2021/04/07 05:51:43;;;;;;;13.18;4.75;;;;;;;4.28;66.64;100198.53;4722469;30;20079;-77
2021/04/07 05:54:48;;;;;;;8.70;4.47;;;;;;;4.17;67.43;100199.22;4719397;30;20075;-77
2021/04/07 05:58:00;;;;;;;7.07;5.03;;;;;;;4.27;67.71;100247.31;4727742;30;20523;-80
2021/04/07 06:01:04;;;;;;;9.32;5.53;;;;;;;3.92;69.71;100265.47;4743189;30;20052;-78
2021/04/07 06:04:08;;;;;;;10.43;5.80;;;;;;;3.67;70.72;100247.53;4735887;30;20425;-78
2021/04/07 06:07:13;;;;;;;8.80;6.97;;;;;;;3.92;70.62;100265.47;4729046;30;20071;-78
2021/04/07 06:10:18;;;;;;;7.75;6.03;;;;;;;4.14;70.18;100271.13;4732580;30;20061;-77
2021/04/07 06:13:23;;;;;;;9.95;6.35;;;;;;;4.52;69.52;100264.22;4736117;30;20056;-83
2021/04/07 06:16:27;;;;;;;30.52;22.67;;;;;;;5.05;68.14;100273.16;4732914;30;20063;-78
2021/04/07 06:19:31;;;;;;;40.42;29.30;;;;;;;5.57;66.65;100270.50;4737171;30;20048;-77
2021/04/07 06:22:37;;;;;;;16.70;8.45;;;;;;;6.10;64.84;100269.47;4736242;30;20055;-78
2021/04/07 06:26:00;;;;;;;7.25;4.95;;;;;;;6.38;62.33;100279.84;4742663;30;20059;-77
2021/04/07 06:29:04;;;;;;;7.53;4.32;;;;;;;6.44;62.58;100268.75;4735408;30;20436;-78
2021/04/07 06:32:09;;;;;;;6.05;3.80;;;;;;;6.56;62.23;100278.53;4735744;30;20068;-77
2021/04/07 06:35:13;;;;;;;6.28;4.40;;;;;;;6.60;60.78;100282.69;4734536;30;20059;-78
2021/04/07 06:38:19;;;;;;;6.43;3.80;;;;;;;6.59;61.27;100291.66;4733764;30;20068;-78
2021/04/07 06:41:23;;;;;;;6.05;4.18;;;;;;;6.62;61.64;100293.25;4735538;30;20064;-77
2021/04/07 06:44:28;;;;;;;8.13;4.60;;;;;;;6.77;61.42;100316.13;4733694;30;20417;-78
2021/04/07 06:47:34;;;;;;;12.95;5.60;;;;;;;6.65;62.07;100317.00;4736037;30;20068;-75
2021/04/07 06:50:40;;;;;;;7.72;5.55;;;;;;;6.83;62.52;100324.53;4730272;30;20410;-77
2021/04/07 06:53:51;;;;;;;10.45;6.45;;;;;;;6.82;62.71;100324.63;4725512;30;20052;-76
2021/04/07 06:56:56;;;;;;;8.25;5.82;;;;;;;7.17;61.96;100318.44;4707228;30;20439;-76
2021/04/07 07:00:00;;;;;;;9.93;5.82;;;;;;;7.53;61.04;100322.81;4740944;30;20059;-76
2021/04/07 07:03:10;;;;;;;8.45;5.78;;;;;;;8.06;59.14;100312.50;4736146;30;20059;-77
2021/04/07 07:06:15;;;;;;;10.50;5.60;;;;;;;8.61;57.53;100309.88;4746397;30;20065;-78
2021/04/07 07:09:19;;;;;;;6.45;4.57;;;;;;;9.76;53.03;100303.75;4740896;30;20059;-78
2021/04/07 07:12:25;;;;;;;9.23;4.28;;;;;;;10.88;49.99;100306.41;4735887;30;20059;-77
2021/04/07 07:15:30;;;;;;;9.13;5.68;;;;;;;11.65;47.45;100320.78;4733663;30;20071;-78
2021/04/07 07:18:34;;;;;;;9.80;6.18;;;;;;;12.75;44.60;100326.31;4741377;30;20111;-78
2021/04/07 07:21:49;;;;;;;8.32;4.65;;;;;;;14.64;40.08;100331.25;4737594;30;20060;-78
2021/04/07 07:24:55;;;;;;;9.60;3.63;;;;;;;17.76;34.80;100331.31;4734144;30;20052;-75
2021/04/07 07:28:05;;;;;;;8.98;3.63;;;;;;;20.75;30.21;100320.81;4735002;30;20067;-80
2021/04/07 07:31:24;;;;;;;6.57;3.13;;;;;;;27.00;22.09;100323.66;4734027;30;20064;-77
2021/04/07 07:34:29;;;;;;;9.55;3.60;;;;;;;29.85;18.54;100324.28;4732353;30;20125;-77
2021/04/07 07:37:34;;;;;;;5.35;2.65;;;;;;;32.67;16.35;100320.09;4734477;30;20079;-78
2021/04/07 07:40:38;;;;;;;23.77;18.50;;;;;;;34.78;14.75;100329.28;4748371;30;20059;-78
2021/04/07 07:43:42;;;;;;;6.07;4.20;;;;;;;35.59;13.96;100322.78;4742749;30;20052;-79
2021/04/07 07:46:54;;;;;;;4.30;2.88;;;;;;;35.72;13.55;100331.25;4736931;30;20068;-78
2021/04/07 07:50:07;;;;;;;3.95;2.15;;;;;;;34.89;13.95;100344.78;4735513;30;20059;-80
2021/04/07 07:53:20;;;;;;;4.53;2.42;;;;;;;36.33;12.59;100335.91;4735856;30;20130;-80
2021/04/07 07:56:36;;;;;;;3.85;2.20;;;;;;;37.56;12.43;100348.19;4737865;30;20056;-80
2021/04/07 07:59:41;;;;;;;4.63;2.25;;;;;;;36.85;13.22;100354.31;4735699;30;20056;-79
2021/04/07 08:02:45;;;;;;;7.18;2.75;;;;;;;37.90;12.50;100359.75;4735338;30;20067;-80
2021/04/07 08:05:49;;;;;;;7.53;3.35;;;;;;;36.96;13.13;100361.44;4737536;30;20087;-79
2021/04/07 08:08:56;;;;;;;8.95;3.83;;;;;;;38.34;12.04;100361.84;4734086;30;20064;-80
2021/04/07 08:12:00;;;;;;;5.78;3.75;;;;;;;37.73;12.81;100376.38;4732791;30;20060;-79
2021/04/07 08:15:06;;;;;;;5.90;3.03;;;;;;;38.01;12.97;100382.81;4735851;30;20059;-78
2021/04/07 08:18:29;;;;;;;5.70;2.67;;;;;;;37.11;12.73;100381.56;4735066;30;20068;-79
2021/04/07 08:21:35;;;;;;;7.22;2.28;;;;;;;37.92;11.89;100390.31;4730792;30;20056;-80
2021/04/07 08:24:41;;;;;;;5.95;2.95;;;;;;;37.50;12.35;100395.09;4732463;30;20439;-79
2021/04/07 08:27:50;;;;;;;6.05;2.30;;;;;;;34.55;14.27;100411.75;4734289;30;20067;-79
2021/04/07 08:30:55;;;;;;;4.70;2.13;;;;;;;33.34;14.07;100403.16;4740348;30;20051;-80
2021/04/07 08:34:02;;;;;;;4.97;1.75;;;;;;;34.60;14.06;100413.66;4737130;30;20059;-80
2021/04/07 08:37:06;;;;;;;5.15;2.00;;;;;;;34.01;14.08;100410.97;4734894;30;20047;-80
2021/04/07 08:40:14;;;;;;;5.18;2.05;;;;;;;33.55;13.76;100410.38;4734675;30;20055;-77
2021/04/07 08:43:18;;;;;;;7.93;2.35;;;;;;;33.42;14.24;100414.56;4736781;30;20056;-79
2021/04/07 08:46:24;;;;;;;6.28;1.90;;;;;;;34.72;13.72;100411.34;4734712;30;20061;-77
2021/04/07 08:49:32;;;;;;;5.50;2.00;;;;;;;33.47;14.38;100410.06;4734265;30;20055;-78
2021/04/07 08:52:48;;;;;;;5.55;1.65;;;;;;;32.41;15.37;100416.56;4734877;30;20055;-78
2021/04/07 08:55:54;;;;;;;7.40;2.08;;;;;;;32.44;15.69;100413.19;4735051;30;20060;-77
2021/04/07 08:59:04;;;;;;;6.68;1.92;;;;;;;31.37;15.88;100422.28;4733791;30;20056;-79
2021/04/07 09:02:08;;;;;;;5.70;1.98;;;;;;;29.21;16.79;100417.25;4734011;30;20060;-79
2021/04/07 09:05:13;;;;;;;4.75;2.13;;;;;;;25.49;19.34;100435.25;4734475;30;20059;-79
2021/04/07 09:08:21;;;;;;;3.60;1.95;;;;;;;22.57;21.99;100433.63;4734904;30;20052;-79
2021/04/07 09:11:27;;;;;;;5.25;2.20;;;;;;;20.43;24.33;100439.53;4729155;30;20158;-78
2021/04/07 09:14:35;;;;;;;6.68;2.10;;;;;;;18.30;27.14;100447.00;4744184;30;20077;-79
2021/04/07 09:17:53;;;;;;;7.05;2.65;;;;;;;17.90;28.39;100447.31;4728443;30;20176;-79
2021/04/07 09:21:00;;;;;;;6.75;2.22;;;;;;;17.30;28.96;100441.66;4717619;30;20060;-77
2021/04/07 09:24:19;;;;;;;5.43;2.45;;;;;;;16.33;29.58;100449.09;4717097;30;20060;-78
2021/04/07 09:27:26;;;;;;;5.38;2.17;;;;;;;15.72;30.07;100454.94;4706379;30;20413;-78
2021/04/07 09:30:39;;;;;;;22.63;16.85;;;;;;;15.59;29.45;100447.28;4706316;30;20052;-79
2021/04/07 09:33:50;;;;;;;12.43;9.60;;;;;;;15.28;29.55;100456.94;4711802;30;20053;-78
2021/04/07 09:36:55;;;;;;;4.30;2.40;;;;;;;15.00;30.60;100459.00;4713635;30;20053;-79
2021/04/07 09:40:02;;;;;;;5.63;2.30;;;;;;;14.50;31.06;100469.63;4708702;30;20513;-78
2021/04/07 09:43:06;;;;;;;7.22;3.00;;;;;;;13.74;31.56;100470.22;4721691;30;20503;-78
2021/04/07 09:46:11;;;;;;;6.25;2.70;;;;;;;13.54;30.01;100470.34;4719013;30;20527;-78
2021/04/07 09:49:16;;;;;;;7.43;2.15;;;;;;;13.58;30.03;100479.81;4729038;30;20413;-79
2021/04/07 09:52:20;;;;;;;4.30;2.13;;;;;;;13.67;30.26;100480.78;4724995;30;20060;-78
2021/04/07 09:55:25;;;;;;;5.13;2.40;;;;;;;13.64;30.43;100472.97;4713991;30;20079;-80
2021/04/07 09:58:40;;;;;;;5.80;2.10;;;;;;;13.69;28.53;100476.91;4711408;30;20060;-76
2021/04/07 10:01:44;;;;;;;3.20;1.77;;;;;;;13.85;28.08;100470.84;4696925;30;20060;-78
2021/04/07 10:04:49;;;;;;;3.88;2.10;;;;;;;13.86;26.83;100477.09;4721282;30;20051;-77
2021/04/07 10:07:59;;;;;;;4.75;2.30;;;;;;;13.81;26.13;100477.53;4726010;30;20056;-78
2021/04/07 10:11:08;;;;;;;3.75;2.10;;;;;;;13.53;24.70;100490.19;4716218;30;20414;-79
2021/04/07 10:14:12;;;;;;;5.22;2.67;;;;;;;13.56;25.87;100483.66;4726126;30;20060;-79
2021/04/07 10:17:23;;;;;;;4.68;3.15;;;;;;;13.65;25.87;100480.91;4716059;30;20079;-78
2021/04/07 10:20:29;;;;;;;6.50;2.80;;;;;;;13.40;26.23;100488.88;4742670;30;20059;-78
2021/04/07 10:23:33;;;;;;;5.03;2.38;;;;;;;13.32;26.12;100481.53;4752674;30;20079;-78
2021/04/07 10:26:44;;;;;;;5.40;2.50;;;;;;;13.39;25.07;100482.63;4742129;30;20073;-78
2021/04/07 10:30:01;;;;;;;4.35;3.00;;;;;;;13.53;25.25;100492.03;4732257;30;20457;-76
2021/04/07 10:33:06;;;;;;;12.55;8.48;;;;;;;13.28;25.69;100481.97;4731356;30;20137;-75
2021/04/07 10:36:11;;;;;;;13.45;8.80;;;;;;;13.20;24.80;100488.09;4731617;30;20051;-76
2021/04/07 10:39:18;;;;;;;9.18;4.55;;;;;;;13.13;25.21;100487.00;4741789;30;20056;-77
2021/04/07 10:42:23;;;;;;;6.45;2.40;;;;;;;12.91;23.47;100495.41;4742078;30;20610;-77
2021/04/07 10:45:27;;;;;;;3.45;1.70;;;;;;;12.91;24.10;100492.72;4742500;30;20059;-78
2021/04/07 10:48:34;;;;;;;5.38;2.30;;;;;;;12.99;24.25;100490.97;4742162;30;20500;-80
2021/04/07 10:51:38;;;;;;;4.03;2.38;;;;;;;13.03;25.92;100491.53;4735375;30;20462;-78
2021/04/07 10:54:43;;;;;;;3.80;2.45;;;;;;;13.23;24.86;100492.34;4730421;30;20071;-79
2021/04/07 10:57:48;;;;;;;6.30;2.85;;;;;;;13.33;25.07;100488.59;4721086;30;20520;-78
2021/04/07 11:00:54;;;;;;;5.57;2.88;;;;;;;13.58;27.03;100498.69;4713383;30;20075;-79
2021/04/07 11:04:13;;;;;;;4.90;2.78;;;;;;;13.35;26.61;100492.00;4725796;30;20060;-79
2021/04/07 11:07:17;;;;;;;5.07;3.22;;;;;;;13.38;26.95;100499.78;4724995;30;20520;-78
2021/04/07 11:10:22;;;;;;;6.57;2.90;;;;;;;13.27;26.91;100497.28;4715408;30;20060;-79
2021/04/07 11:13:26;;;;;;;7.22;3.05;;;;;;;13.11;26.38;100485.44;4714039;30;20413;-78
2021/04/07 11:16:32;;;;;;;6.53;3.10;;;;;;;13.22;26.50;100490.63;4715073;30;20056;-79
2021/04/07 11:19:38;;;;;;;5.00;2.83;;;;;;;13.37;25.30;100490.00;4715428;30;20409;-79
2021/04/07 11:22:43;;;;;;;4.80;2.42;;;;;;;13.46;22.93;100481.00;4725251;30;20055;-77
2021/04/07 11:25:48;;;;;;;5.78;2.17;;;;;;;13.50;24.89;100487.81;4714426;30;20075;-79
2021/04/07 11:28:53;;;;;;;5.28;2.20;;;;;;;13.42;22.70;100482.31;4712914;30;20524;-78
2021/04/07 11:32:00;;;;;;;5.65;2.10;;;;;;;13.27;22.74;100481.13;4723642;30;20073;-76
2021/04/07 11:35:15;;;;;;;5.95;1.95;;;;;;;13.09;20.17;100469.41;4711277;30;20075;-78
2021/04/07 11:38:20;;;;;;;3.20;1.67;;;;;;;12.96;20.36;100480.47;4725027;30;20068;-77
2021/04/07 11:44:50;;;;;;;4.20;1.38;;;;;;;12.62;17.75;100497.28;4724499;30;20406;-77
2021/04/07 11:47:54;;;;;;;6.20;1.30;;;;;;;12.47;16.79;100501.44;4724367;30;20116;-79
2021/04/07 11:50:59;;;;;;;4.07;1.35;;;;;;;12.40;17.12;100501.16;4712984;30;20059;-78
2021/04/07 11:54:12;;;;;;;3.13;1.33;;;;;;;12.23;17.49;100493.78;4704832;30;20056;-78
2021/04/07 11:57:16;;;;;;;2.53;1.20;;;;;;;12.46;18.03;100494.34;4714302;30;20084;-77
2021/04/07 12:00:24;;;;;;;3.83;1.33;;;;;;;12.72;18.48;100504.38;4714736;30;20047;-79
2021/04/07 12:03:28;;;;;;;4.68;1.10;;;;;;;12.78;17.08;100497.56;4704993;30;20105;-78
2021/04/07 12:06:33;;;;;;;5.75;1.50;;;;;;;12.75;16.42;100487.94;4696994;30;20060;-78
2021/04/07 12:09:40;;;;;;;3.67;1.20;;;;;;;12.93;17.04;100496.09;4706821;30;20122;-78
2021/04/07 12:12:47;;;;;;;4.55;1.30;;;;;;;12.98;16.33;100481.22;4710958;30;20409;-76
2021/04/07 12:15:51;;;;;;;4.60;1.40;;;;;;;12.99;16.90;100476.66;4713961;30;20060;-78
2021/04/07 12:18:56;;;;;;;3.33;1.35;;;;;;;12.81;15.14;100491.88;4704340;30;20441;-78
2021/04/07 12:22:01;;;;;;;3.35;1.20;;;;;;;12.70;15.83;100483.97;4714486;30;20055;-79
2021/04/07 12:25:09;;;;;;;4.63;1.63;;;;;;;12.39;15.58;100486.00;4712299;30;20060;-79
2021/04/07 12:28:13;;;;;;;6.10;1.50;;;;;;;12.25;16.03;100473.81;4714176;30;20063;-78
2021/04/07 12:31:20;;;;;;;2.35;0.98;;;;;;;12.49;16.94;100496.75;4713809;30;20067;-78
2021/04/07 12:34:27;;;;;;;2.70;1.10;;;;;;;12.62;14.67;100500.84;4713709;30;20056;-78
2021/04/07 12:37:31;;;;;;;3.83;1.30;;;;;;;12.83;14.99;100490.75;4698124;30;20059;-78
2021/04/07 12:40:37;;;;;;;2.83;1.10;;;;;;;12.85;14.59;100487.91;4693137;30;20056;-77
2021/04/07 12:43:41;;;;;;;4.13;2.50;;;;;;;13.02;15.78;100484.44;4711805;30;20055;-81
2021/04/07 12:46:45;;;;;;;3.50;1.20;;;;;;;13.03;13.96;100502.31;4712421;30;20084;-78
2021/04/07 12:49:50;;;;;;;3.28;1.02;;;;;;;12.92;14.91;100510.56;4711021;30;20067;-78
2021/04/07 12:52:54;;;;;;;2.33;1.05;;;;;;;12.94;16.09;100511.25;4723672;30;20088;-78
2021/04/07 12:55:58;;;;;;;3.00;1.23;;;;;;;13.19;17.28;100518.75;4713973;30;20063;-77
2021/04/07 12:59:06;;;;;;;7.75;1.13;;;;;;;13.27;17.02;100518.00;4720276;30;20516;-79
2021/04/07 13:02:12;;;;;;;6.20;1.27;;;;;;;13.18;16.86;100525.16;4696845;30;20521;-78
2021/04/07 13:05:16;;;;;;;2.95;1.08;;;;;;;13.02;15.53;100522.16;4716832;30;20069;-80
2021/04/07 13:08:20;;;;;;;3.97;1.08;;;;;;;13.23;15.83;100530.94;4720225;30;20064;-78
2021/04/07 13:11:25;;;;;;;3.13;1.00;;;;;;;13.46;14.45;100534.09;4699964;30;20501;-79
2021/04/07 13:14:29;;;;;;;2.70;1.10;;;;;;;13.67;14.70;100527.47;4715639;30;20056;-79
2021/04/07 13:17:34;;;;;;;4.40;1.23;;;;;;;13.88;14.30;100540.69;4712152;30;20057;-78
2021/04/07 13:20:38;;;;;;;2.78;1.10;;;;;;;13.80;14.54;100542.47;4724146;30;20516;-78
2021/04/07 13:23:43;;;;;;;3.17;1.20;;;;;;;13.87;15.42;100546.25;4716763;30;20056;-79
2021/04/07 13:26:48;;;;;;;4.00;1.45;;;;;;;14.03;17.08;100558.06;4716791;30;20068;-78
2021/04/07 13:29:52;;;;;;;3.15;1.13;;;;;;;14.14;18.52;100563.28;4716471;30;20066;-79
2021/04/07 13:33:02;;;;;;;7.15;1.27;;;;;;;14.13;18.96;100579.59;4726573;30;20052;-79
2021/04/07 13:39:22;;;;;;;5.85;2.05;;;;;;;13.75;18.47;100582.53;4738158;30;20397;-77
2021/04/07 13:45:46;;;;;;;12.68;1.27;;;;;;;13.69;19.03;100592.91;4728860;30;20056;-78
2021/04/07 13:48:52;;;;;;;4.80;1.42;;;;;;;13.48;19.37;100594.97;4717570;30;20057;-76
2021/04/07 13:51:58;;;;;;;4.30;1.40;;;;;;;12.72;19.24;100613.94;4697699;30;20072;-77
2021/04/07 13:55:03;;;;;;;5.65;1.70;;;;;;;12.65;20.89;100619.06;4708143;30;20068;-77
2021/04/07 13:58:07;;;;;;;3.58;1.20;;;;;;;12.59;18.51;100605.31;4707297;30;20414;-76
2021/04/07 14:01:13;;;;;;;7.18;2.80;;;;;;;12.85;18.11;100601.03;4707505;30;20156;-77
2021/04/07 14:04:18;;;;;;;18.05;12.82;;;;;;;13.22;18.28;100607.41;4702147;30;20046;-77
2021/04/07 14:07:23;;;;;;;11.18;6.25;;;;;;;13.56;18.30;100595.09;4696801;30;20056;-77
2021/04/07 14:10:28;;;;;;;6.45;1.73;;;;;;;13.79;17.75;100594.72;4697654;30;20052;-77
2021/04/07 14:13:33;;;;;;;4.45;1.20;;;;;;;13.89;17.75;100584.72;4697116;30;20164;-77
2021/04/07 14:16:39;;;;;;;3.60;1.42;;;;;;;13.94;16.88;100602.16;4698556;30;20160;-78
2021/04/07 14:19:43;;;;;;;4.40;1.10;;;;;;;13.66;15.54;100592.34;4707492;30;20056;-78
2021/04/07 14:22:48;;;;;;;4.90;1.17;;;;;;;13.56;16.27;100588.84;4707100;30;20115;-79
2021/04/07 14:25:53;;;;;;;3.45;1.58;;;;;;;13.48;17.00;100584.19;4711203;30;20074;-78
2021/04/07 14:28:58;;;;;;;5.43;1.20;;;;;;;13.54;16.81;100582.75;4708288;30;20060;-78
2021/04/07 14:32:03;;;;;;;2.60;1.10;;;;;;;13.37;15.38;100592.47;4712264;30;20056;-78
2021/04/07 14:35:10;;;;;;;4.28;1.05;;;;;;;13.34;15.22;100595.44;4726165;30;20060;-79
2021/04/07 14:38:17;;;;;;;2.17;0.90;;;;;;;13.22;14.42;100598.47;4725405;30;20073;-78